Time;durP1;ratioP1;P1;durP2;ratioP2;P2;SDS_P1;SDS_P2;PMS_P1;PMS_P2;Temp;Humidity;BMP_temperature;BMP_pressure;BME280_temperature;BME280_humidity;BME280_pressure;Samples;Min_cycle;Max_cycle;Signal;HPM_P1;HPM_P2
2022/12/03 00:01:57;;;;;;;48.30;20.73;;;5.50;44.90;;;;;;5031925;28;20227;-48
2022/12/03 00:04:23;;;;;;;32.63;20.13;;;5.50;45.00;;;;;;5032255;28;20248;-48
2022/12/03 00:06:49;;;;;;;34.93;18.70;;;5.50;45.00;;;;;;5032456;28;20248;-48
2022/12/03 00:09:14;;;;;;;36.07;19.20;;;5.50;45.10;;;;;;5032188;28;20162;-48
2022/12/03 00:11:40;;;;;;;36.73;20.57;;;5.50;45.00;;;;;;5032134;28;20201;-48
2022/12/03 00:14:06;;;;;;;39.10;21.60;;;5.50;45.10;;;;;;5031863;28;20251;-48
2022/12/03 00:16:32;;;;;;;32.27;18.47;;;5.50;44.80;;;;;;5031998;28;20173;-48
2022/12/03 00:18:57;;;;;;;34.07;20.30;;;5.40;44.70;;;;;;5032032;28;20166;-48
2022/12/03 00:21:23;;;;;;;36.80;20.10;;;5.40;45.00;;;;;;5031978;28;20415;-48
2022/12/03 00:23:49;;;;;;;28.90;17.63;;;5.40;45.00;;;;;;5031744;28;20807;-48
2022/12/03 00:26:14;;;;;;;31.50;16.60;;;5.40;45.20;;;;;;5032012;28;20600;-48
2022/12/03 00:28:40;;;;;;;28.23;18.70;;;5.40;45.00;;;;;;5031890;28;20166;-48
2022/12/03 00:31:06;;;;;;;32.20;19.47;;;5.40;45.10;;;;;;5031903;28;20169;-48
2022/12/03 00:33:32;;;;;;;38.67;20.60;;;5.40;45.10;;;;;;5031580;28;20217;-48
2022/12/03 00:35:57;;;;;;;37.27;21.60;;;5.40;45.30;;;;;;5031862;28;20179;-48
2022/12/03 00:38:23;;;;;;;33.27;20.33;;;5.40;45.20;;;;;;5031820;28;20212;-48
2022/12/03 00:40:49;;;;;;;41.43;21.13;;;5.40;45.20;;;;;;5031873;28;20288;-48
2022/12/03 00:43:14;;;;;;;36.70;20.57;;;5.40;45.10;;;;;;5031409;28;20753;-48
2022/12/03 00:45:40;;;;;;;37.03;18.20;;;5.40;45.10;;;;;;5031761;28;20228;-48
2022/12/03 00:48:06;;;;;;;30.30;18.33;;;5.40;45.20;;;;;;5031777;28;20936;-48
2022/12/03 00:50:32;;;;;;;34.27;19.53;;;5.30;45.10;;;;;;5031798;28;20593;-48
2022/12/03 00:52:57;;;;;;;41.20;20.40;;;5.30;45.20;;;;;;5031466;28;20624;-48
2022/12/03 00:55:23;;;;;;;31.93;19.90;;;5.30;45.30;;;;;;5031791;28;20173;-48
2022/12/03 00:57:49;;;;;;;32.03;20.30;;;5.30;45.20;;;;;;5031643;28;20173;-48
2022/12/03 01:00:15;;;;;;;33.03;18.60;;;5.30;45.20;;;;;;5031569;28;20636;-48
2022/12/03 01:02:41;;;;;;;33.13;18.85;;;5.30;45.10;;;;;;5031286;28;20202;-48
2022/12/03 01:05:07;;;;;;;35.43;16.30;;;5.30;45.00;;;;;;5033364;28;20197;-48
2022/12/03 01:07:33;;;;;;;31.35;18.27;;;5.30;45.10;;;;;;5035499;28;20396;-48
2022/12/03 01:09:59;;;;;;;40.70;20.33;;;5.30;45.30;;;;;;5035477;28;20249;-49
2022/12/03 01:12:25;;;;;;;33.70;19.33;;;5.30;45.40;;;;;;5035120;28;20273;-48
2022/12/03 01:14:50;;;;;;;29.40;16.70;;;5.30;45.40;;;;;;5035296;28;20231;-48
2022/12/03 01:17:16;;;;;;;35.70;19.40;;;5.40;45.40;;;;;;5035305;28;20166;-48
2022/12/03 01:19:42;;;;;;;35.13;19.70;;;5.30;45.40;;;;;;5035266;28;20325;-48
2022/12/03 01:22:07;;;;;;;29.73;19.50;;;5.30;45.10;;;;;;5034844;28;20201;-48
2022/12/03 01:24:33;;;;;;;39.90;23.80;;;5.40;44.90;;;;;;5035179;28;20253;-49
2022/12/03 01:26:59;;;;;;;28.93;17.90;;;5.30;45.10;;;;;;5035060;28;20174;-48
2022/12/03 01:29:25;;;;;;;29.75;17.70;;;5.30;45.20;;;;;;5035015;28;20557;-48
2022/12/03 01:34:35;;;;;;;34.22;19.45;;;5.30;45.40;;;;;;5035038;28;20654;-48
2022/12/03 01:37:01;;;;;;;37.83;20.20;;;5.30;45.50;;;;;;5034928;28;20178;-48
2022/12/03 01:39:27;;;;;;;41.03;23.40;;;5.30;45.30;;;;;;5034818;28;20181;-48
2022/12/03 01:41:54;;;;;;;27.30;17.80;;;5.40;45.30;;;;;;5034537;28;20480;-48
2022/12/03 01:44:25;;;;;;;33.53;19.73;;;5.40;45.10;;;;;;5034698;28;20312;-48
2022/12/03 01:46:54;;;;;;;34.47;18.75;;;5.30;45.00;;;;;;5034813;28;20177;-48
2022/12/03 01:49:29;;;;;;;35.95;20.27;;;5.40;45.20;;;;;;5034680;28;20170;-48
2022/12/03 01:51:56;;;;;;;31.80;18.20;;;5.30;45.30;;;;;;5034441;28;20170;-48
2022/12/03 01:54:27;;;;;;;28.50;17.95;;;5.40;45.40;;;;;;5034569;28;20183;-48
2022/12/03 01:56:54;;;;;;;35.65;19.20;;;5.40;45.40;;;;;;5034692;28;20172;-48
2022/12/03 01:59:27;;;;;;;36.47;19.73;;;5.40;45.40;;;;;;5034485;28;20201;-48
2022/12/03 02:01:52;;;;;;;32.30;19.40;;;5.40;45.20;;;;;;5034196;28;20257;-48
2022/12/03 02:04:21;;;;;;;34.17;19.37;;;5.40;44.90;;;;;;5034328;28;20245;-48
2022/12/03 02:06:47;;;;;;;41.30;20.00;;;5.30;45.10;;;;;;5034308;28;20166;-48
2022/12/03 02:09:12;;;;;;;34.00;21.30;;;5.30;45.40;;;;;;5034327;28;20184;-48
2022/12/03 02:11:48;;;;;;;31.90;18.40;;;5.40;45.40;;;;;;5034279;28;20174;-49
2022/12/03 02:14:20;;;;;;;38.30;19.65;;;5.40;45.20;;;;;;5034031;28;20817;-48
2022/12/03 02:16:46;;;;;;;38.38;20.58;;;5.30;45.30;;;;;;5033888;28;20177;-48
2022/12/03 02:19:26;;;;;;;33.85;20.38;;;5.40;45.30;;;;;;5034051;28;20664;-48
2022/12/03 02:21:54;;;;;;;31.83;21.58;;;5.40;45.30;;;;;;5033835;28;20517;-48
2022/12/03 02:24:50;;;;;;;34.85;20.17;;;5.40;45.40;;;;;;5034066;28;20182;-48
2022/12/03 02:27:16;;;;;;;32.45;18.10;;;5.40;45.40;;;;;;5033934;28;20194;-48
2022/12/03 02:29:42;;;;;;;33.63;19.00;;;5.40;45.40;;;;;;5034223;28;20177;-48
2022/12/03 02:32:08;;;;;;;33.00;17.90;;;5.40;45.20;;;;;;5033509;28;20198;-48
2022/12/03 02:34:42;;;;;;;35.57;18.67;;;5.40;45.20;;;;;;5033845;28;20583;-48
2022/12/03 02:37:18;;;;;;;29.58;18.27;;;5.40;45.10;;;;;;5033800;28;20654;-48
2022/12/03 02:39:49;;;;;;;30.52;18.50;;;5.40;45.20;;;;;;5033766;28;20177;-48
2022/12/03 02:42:33;;;;;;;34.63;19.10;;;5.40;44.90;;;;;;5033278;28;20208;-48
2022/12/03 02:45:21;;;;;;;38.00;20.80;;;5.30;44.90;;;;;;5033683;28;20250;-48
2022/12/03 02:47:55;;;;;;;32.53;18.88;;;5.30;45.10;;;;;;5033323;28;20185;-48
2022/12/03 02:50:26;;;;;;;38.17;17.80;;;5.20;45.10;;;;;;5033579;28;20185;-48
2022/12/03 02:52:54;;;;;;;32.08;19.38;;;5.20;45.20;;;;;;5033281;28;20756;-48
2022/12/03 02:55:20;;;;;;;28.67;19.20;;;5.20;45.30;;;;;;5033435;28;20659;-48
2022/12/03 02:57:49;;;;;;;38.22;20.23;;;5.30;45.40;;;;;;5033333;28;20567;-48
2022/12/03 03:00:16;;;;;;;27.13;15.50;;;5.30;45.40;;;;;;5033360;28;20270;-48
2022/12/03 03:02:44;;;;;;;28.67;15.25;;;5.30;45.40;;;;;;5033024;28;20570;-48
2022/12/03 03:05:11;;;;;;;36.05;21.05;;;5.40;45.40;;;;;;5033157;28;20178;-48
2022/12/03 03:07:38;;;;;;;34.28;18.42;;;5.40;45.40;;;;;;5033260;28;20688;-48
2022/12/03 03:10:06;;;;;;;35.40;19.10;;;5.40;45.20;;;;;;5033661;28;20174;-48
2022/12/03 03:12:32;;;;;;;33.72;19.83;;;5.30;44.90;;;;;;5032814;28;20561;-48
2022/12/03 03:14:58;;;;;;;39.28;22.08;;;5.30;44.90;;;;;;5033145;28;20174;-48
2022/12/03 03:17:24;;;;;;;31.23;18.00;;;5.30;44.80;;;;;;5032979;28;20165;-48
2022/12/03 03:19:50;;;;;;;33.70;18.83;;;5.30;45.00;;;;;;5033130;28;20188;-48
2022/12/03 03:22:16;;;;;;;34.63;20.10;;;5.30;45.20;;;;;;5032632;28;20451;-48
2022/12/03 03:24:42;;;;;;;31.33;18.60;;;5.30;45.20;;;;;;5032973;28;20222;-48
2022/12/03 03:27:08;;;;;;;35.97;19.13;;;5.30;45.20;;;;;;5032198;28;20699;-48
2022/12/03 03:29:34;;;;;;;30.05;18.98;;;5.30;45.30;;;;;;5032859;28;20960;-48
2022/12/03 03:32:01;;;;;;;33.38;18.92;;;5.30;45.40;;;;;;5032422;28;20269;-49
2022/12/03 03:34:27;;;;;;;29.55;19.02;;;5.30;45.30;;;;;;5032770;28;20580;-48
2022/12/03 03:36:53;;;;;;;27.42;17.25;;;5.40;45.20;;;;;;5032763;28;20180;-48
2022/12/03 03:39:19;;;;;;;40.43;19.23;;;5.40;45.20;;;;;;5032659;28;20256;-48
2022/12/03 03:41:45;;;;;;;37.83;21.50;;;5.30;45.00;;;;;;5032550;28;20409;-48
2022/12/03 03:44:12;;;;;;;30.02;16.85;;;5.30;45.10;;;;;;5032238;28;20778;-47
2022/12/03 03:46:39;;;;;;;31.00;19.65;;;5.30;45.30;;;;;;5032486;28;20257;-48
2022/12/03 03:49:06;;;;;;;33.97;18.02;;;5.30;45.20;;;;;;5032473;28;20195;-48
2022/12/03 03:51:34;;;;;;;33.25;17.98;;;5.30;45.00;;;;;;5032406;28;20162;-48
2022/12/03 03:54:01;;;;;;;33.15;17.98;;;5.30;45.10;;;;;;5032194;28;20209;-48
2022/12/03 03:56:27;;;;;;;30.38;18.70;;;5.30;45.20;;;;;;5032354;28;20181;-48
2022/12/03 03:58:54;;;;;;;31.83;18.43;;;5.30;45.10;;;;;;5032407;28;20174;-48
2022/12/03 04:01:22;;;;;;;33.85;17.55;;;5.30;44.90;;;;;;5032263;28;20952;-48
2022/12/03 04:03:47;;;;;;;30.55;18.42;;;5.30;45.20;;;;;;5031940;28;20687;-48
2022/12/03 04:06:13;;;;;;;32.60;17.70;;;5.30;45.20;;;;;;5032189;28;20173;-48
2022/12/03 04:08:39;;;;;;;28.13;18.07;;;5.30;45.90;;;;;;5032188;28;20224;-48
2022/12/03 04:14:05;;;;;;;21.40;16.05;;;5.30;45.30;;;;;;5029476;28;20194;-48
2022/12/03 04:16:31;;;;;;;30.33;16.50;;;5.30;45.20;;;;;;5031622;28;20208;-48
2022/12/03 04:18:57;;;;;;;29.70;16.27;;;5.30;45.20;;;;;;5032122;28;20174;-48
2022/12/03 04:24:09;;;;;;;31.45;17.35;;;5.20;44.70;;;;;;5031676;28;20213;-48
2022/12/03 04:29:20;;;;;;;29.88;15.82;;;5.10;45.00;;;;;;5032224;28;20185;-48
2022/12/03 04:37:15;;;;;;;31.95;15.65;;;5.00;45.20;;;;;;5031920;28;20632;-48
2022/12/03 04:39:41;;;;;;;26.60;16.83;;;5.00;45.40;;;;;;5034690;28;20244;-48
2022/12/03 04:42:06;;;;;;;23.37;15.50;;;5.10;45.40;;;;;;5035546;28;20466;-48
2022/12/03 04:44:34;;;;;;;25.57;17.50;;;5.10;45.30;;;;;;5035962;28;20177;-48
2022/12/03 04:47:05;;;;;;;27.02;16.55;;;5.10;45.30;;;;;;5034513;28;20178;-48
2022/12/03 04:49:32;;;;;;;32.65;15.38;;;5.10;45.50;;;;;;5035893;28;20158;-48
2022/12/03 04:51:57;;;;;;;27.13;16.05;;;5.10;45.50;;;;;;5035490;28;20189;-48
2022/12/03 04:54:23;;;;;;;28.17;17.03;;;5.10;45.50;;;;;;5035829;28;20709;-48
2022/12/03 04:56:49;;;;;;;28.50;15.57;;;6.00;45.70;;;;;;5035751;28;20170;-48
2022/12/03 04:59:14;;;;;;;30.13;15.87;;;5.10;45.50;;;;;;5035633;28;20166;-48
2022/12/03 05:01:40;;;;;;;25.40;15.40;;;5.00;45.40;;;;;;5035561;28;20179;-48
2022/12/03 05:04:06;;;;;;;25.63;15.20;;;5.00;45.40;;;;;;5035274;28;20198;-47
2022/12/03 05:06:32;;;;;;;28.30;17.07;;;5.00;45.40;;;;;;5035486;28;20194;-48
2022/12/03 05:08:57;;;;;;;27.60;15.63;;;5.00;45.40;;;;;;5035448;28;20758;-48
2022/12/03 05:11:23;;;;;;;27.60;18.10;;;5.00;45.50;;;;;;5035409;28;20423;-49
2022/12/03 05:13:50;;;;;;;36.80;17.90;;;5.10;45.60;;;;;;5035114;28;20228;-48
2022/12/03 05:16:16;;;;;;;31.70;17.48;;;5.10;45.50;;;;;;5035276;28;20509;-48
2022/12/03 05:18:41;;;;;;;27.20;16.77;;;5.10;45.60;;;;;;5035319;28;20677;-48
2022/12/03 05:21:07;;;;;;;31.17;17.80;;;5.00;45.50;;;;;;5035238;28;20898;-48
2022/12/03 05:23:33;;;;;;;28.23;16.20;;;5.00;45.60;;;;;;5034799;28;20280;-49
2022/12/03 05:25:58;;;;;;;31.83;17.10;;;5.10;45.70;;;;;;5035222;28;20192;-48
2022/12/03 05:28:24;;;;;;;29.17;17.90;;;5.10;45.80;;;;;;5035134;28;20162;-48
2022/12/03 05:30:50;;;;;;;29.90;16.90;;;5.10;45.70;;;;;;5034967;28;20173;-48
2022/12/03 05:33:16;;;;;;;28.38;18.88;;;5.00;45.50;;;;;;5034613;28;20205;-48
2022/12/03 05:35:42;;;;;;;34.40;17.93;;;5.00;45.60;;;;;;5034950;28;20798;-48
2022/12/03 05:38:08;;;;;;;33.37;18.27;;;5.00;45.70;;;;;;5034862;28;20223;-48
2022/12/03 05:40:34;;;;;;;29.87;16.23;;;5.00;45.80;;;;;;5034819;28;20420;-48
2022/12/03 05:43:02;;;;;;;32.33;17.40;;;5.00;45.60;;;;;;5034498;28;20289;-48
2022/12/03 05:45:34;;;;;;;30.05;17.63;;;5.00;45.70;;;;;;5034705;28;20412;-48
2022/12/03 05:48:01;;;;;;;28.05;15.98;;;5.00;45.60;;;;;;5034829;28;20208;-48
2022/12/03 05:50:30;;;;;;;29.23;18.10;;;5.10;45.70;;;;;;5033990;28;20189;-48
2022/12/03 05:52:56;;;;;;;31.00;17.05;;;5.00;45.50;;;;;;5034365;28;20224;-48
2022/12/03 05:55:22;;;;;;;34.83;18.00;;;5.00;45.50;;;;;;5034625;28;20174;-48
2022/12/03 05:57:48;;;;;;;33.80;16.43;;;5.00;45.60;;;;;;5034547;28;20509;-49
2022/12/03 06:00:17;;;;;;;25.40;16.00;;;5.00;45.50;;;;;;5034520;28;20448;-48
2022/12/03 06:02:43;;;;;;;34.45;18.70;;;5.00;45.80;;;;;;5034092;28;20209;-48
2022/12/03 06:05:10;;;;;;;30.80;18.95;;;5.00;45.80;;;;;;5034389;28;20170;-48
2022/12/03 06:07:36;;;;;;;33.58;17.95;;;5.00;45.80;;;;;;5034334;28;20699;-48
2022/12/03 06:10:05;;;;;;;27.08;17.38;;;5.00;45.90;;;;;;5034372;28;20636;-48
2022/12/03 06:12:30;;;;;;;30.42;17.67;;;5.10;45.90;;;;;;5033922;28;20237;-48
2022/12/03 06:14:56;;;;;;;35.40;18.70;;;5.10;45.70;;;;;;5034229;28;20203;-48
2022/12/03 06:17:22;;;;;;;29.57;17.30;;;5.10;45.70;;;;;;5034166;28;20640;-48
2022/12/03 06:19:47;;;;;;;27.43;16.23;;;5.10;45.60;;;;;;5034215;28;20699;-48
2022/12/03 06:22:13;;;;;;;33.40;16.17;;;5.10;45.60;;;;;;5033750;28;20190;-47
2022/12/03 06:24:39;;;;;;;35.73;18.13;;;5.10;45.80;;;;;;5034038;28;20166;-48
2022/12/03 06:27:05;;;;;;;34.07;16.97;;;5.20;45.60;;;;;;5033958;28;20245;-49
2022/12/03 06:29:30;;;;;;;36.70;19.37;;;5.20;45.50;;;;;;5034017;28;20166;-48
2022/12/03 06:31:56;;;;;;;28.20;16.60;;;5.20;45.50;;;;;;5033571;28;20677;-48
2022/12/03 06:34:22;;;;;;;32.90;17.70;;;5.20;45.30;;;;;;5033923;28;20162;-48
2022/12/03 06:36:49;;;;;;;31.00;16.60;;;5.20;45.40;;;;;;5033771;28;20166;-48
2022/12/03 06:39:16;;;;;;;25.35;15.18;;;5.10;46.20;;;;;;5033805;28;20249;-48
2022/12/03 06:41:42;;;;;;;31.65;17.00;;;5.20;45.60;;;;;;5033708;28;20871;-48
2022/12/03 06:44:07;;;;;;;27.43;16.47;;;5.20;45.60;;;;;;5033460;28;20233;-48
2022/12/03 06:46:33;;;;;;;40.17;18.13;;;5.20;45.50;;;;;;5033605;28;20798;-48
2022/12/03 06:48:59;;;;;;;27.40;16.93;;;5.20;45.60;;;;;;5033642;28;20178;-48
2022/12/03 06:51:25;;;;;;;30.50;17.25;;;5.20;45.50;;;;;;5033808;28;20568;-48
2022/12/03 06:53:51;;;;;;;30.40;17.20;;;5.30;45.60;;;;;;5033295;28;20289;-48
2022/12/03 06:56:16;;;;;;;26.70;16.10;;;5.30;45.60;;;;;;5033321;28;20483;-48
2022/12/03 06:58:42;;;;;;;25.53;16.77;;;5.30;45.50;;;;;;5033442;28;20416;-48
2022/12/03 07:01:08;;;;;;;26.50;16.90;;;5.30;45.60;;;;;;5033386;28;20261;-48
2022/12/03 07:03:34;;;;;;;27.50;16.27;;;5.30;45.50;;;;;;5030771;28;20220;-48
2022/12/03 07:05:59;;;;;;;23.90;17.47;;;5.30;45.20;;;;;;5033292;28;20172;-48
2022/12/03 07:08:25;;;;;;;29.93;17.33;;;5.30;45.30;;;;;;5033281;28;20538;-48
2022/12/03 07:10:51;;;;;;;32.00;17.53;;;5.30;45.40;;;;;;5033098;28;20405;-48
2022/12/03 07:13:16;;;;;;;25.27;16.67;;;5.20;45.30;;;;;;5032869;28;20221;-48
2022/12/03 07:15:42;;;;;;;34.80;17.37;;;5.20;45.40;;;;;;5033088;28;20196;-49
2022/12/03 07:18:08;;;;;;;23.40;16.93;;;5.20;45.50;;;;;;5033042;28;20205;-48
2022/12/03 07:20:34;;;;;;;30.40;16.55;;;5.20;45.50;;;;;;5032988;28;20174;-48
2022/12/03 07:23:00;;;;;;;27.10;16.57;;;5.20;46.30;;;;;;5032645;28;20201;-48
2022/12/03 07:25:26;;;;;;;27.93;16.00;;;5.20;45.60;;;;;;5033110;28;20166;-48
2022/12/03 07:27:51;;;;;;;29.50;15.40;;;5.10;45.60;;;;;;5032856;28;20173;-48
2022/12/03 07:30:17;;;;;;;28.30;17.00;;;5.10;45.60;;;;;;5032825;28;20162;-48
2022/12/03 07:32:43;;;;;;;29.48;16.83;;;5.10;45.80;;;;;;5032388;28;20698;-48
2022/12/03 07:35:09;;;;;;;29.07;17.47;;;5.10;46.00;;;;;;5032569;28;20213;-48
2022/12/03 07:37:35;;;;;;;25.27;16.83;;;5.20;45.80;;;;;;5032695;28;20182;-49
2022/12/03 07:40:01;;;;;;;30.80;16.65;;;5.20;45.70;;;;;;5032480;28;20242;-49
2022/12/03 07:42:27;;;;;;;29.33;17.02;;;5.30;45.90;;;;;;5032177;28;20204;-48
2022/12/03 07:44:53;;;;;;;28.47;16.50;;;5.30;45.70;;;;;;5032708;28;20166;-49
2022/12/03 07:47:18;;;;;;;27.67;15.90;;;5.40;45.60;;;;;;5032513;28;20416;-48
2022/12/03 07:49:44;;;;;;;33.50;19.43;;;5.30;45.40;;;;;;5032456;28;20224;-48
2022/12/03 07:52:10;;;;;;;42.43;18.93;;;5.30;45.50;;;;;;5032016;28;20209;-48
2022/12/03 07:54:35;;;;;;;34.60;15.97;;;5.30;45.60;;;;;;5032411;28;20174;-48
2022/12/03 07:57:01;;;;;;;30.93;18.47;;;5.40;45.80;;;;;;5032410;28;20204;-49
2022/12/03 07:59:27;;;;;;;26.80;16.50;;;5.40;45.60;;;;;;5032352;28;20253;-48
2022/12/03 08:01:53;;;;;;;27.48;16.17;;;5.40;45.40;;;;;;5032059;28;20198;-48
2022/12/03 08:04:20;;;;;;;36.07;16.13;;;5.40;45.30;;;;;;5032084;28;20235;-48
2022/12/03 08:06:46;;;;;;;31.38;17.02;;;5.40;45.40;;;;;;5032264;28;20172;-49
2022/12/03 08:09:13;;;;;;;28.35;17.13;;;5.40;45.40;;;;;;5032131;28;20205;-49
2022/12/03 08:11:39;;;;;;;31.98;20.17;;;5.40;45.40;;;;;;5032113;28;20162;-49
2022/12/03 08:14:13;;;;;;;31.70;17.73;;;5.40;45.60;;;;;;5031547;28;20197;-49
2022/12/03 08:16:40;;;;;;;35.63;17.15;;;5.50;45.60;;;;;;5032155;28;20173;-50
2022/12/03 08:19:17;;;;;;;29.45;17.30;;;5.40;45.40;;;;;;5032156;28;20174;-49
2022/12/03 08:32:32;;;;;;;30.10;18.40;;;5.50;45.50;;;;;;5032016;28;20165;-49
2022/12/03 08:35:22;;;;;;;33.55;18.50;;;5.60;45.60;;;;;;4998767;28;20212;-47
2022/12/03 08:37:56;;;;;;;28.90;18.40;;;5.50;45.60;;;;;;5031987;28;20622;-47
2022/12/03 08:40:37;;;;;;;35.70;17.77;;;5.60;45.70;;;;;;5031759;28;20200;-47
2022/12/03 08:43:22;;;;;;;40.72;18.70;;;5.70;45.70;;;;;;5031446;28;20202;-47
2022/12/03 08:45:50;;;;;;;34.08;19.45;;;5.80;45.60;;;;;;5031811;28;20205;-47
2022/12/03 08:48:21;;;;;;;32.25;18.45;;;5.80;45.60;;;;;;5031735;28;20173;-47
2022/12/03 08:50:48;;;;;;;36.10;19.20;;;5.80;45.60;;;;;;5031502;28;20248;-47
2022/12/03 08:53:13;;;;;;;30.95;19.00;;;5.90;45.70;;;;;;5031436;28;20693;-47
2022/12/03 08:55:50;;;;;;;34.00;17.67;;;5.90;45.60;;;;;;5031719;28;20174;-47
2022/12/03 08:58:37;;;;;;;31.08;20.10;;;5.90;45.60;;;;;;5031858;28;20207;-47
2022/12/03 09:01:09;;;;;;;30.02;18.13;;;5.90;45.30;;;;;;5031635;28;20162;-47
2022/12/03 09:03:37;;;;;;;35.15;17.73;;;5.90;45.40;;;;;;5030945;28;20198;-47
2022/12/03 09:06:03;;;;;;;32.83;18.23;;;5.90;45.40;;;;;;5031525;28;20252;-47
2022/12/03 09:08:29;;;;;;;28.90;18.50;;;5.90;45.40;;;;;;5031444;28;20293;-47
2022/12/03 09:10:55;;;;;;;37.88;21.52;;;5.90;45.40;;;;;;5031595;28;20166;-47
2022/12/03 09:13:21;;;;;;;42.33;22.93;;;5.90;45.50;;;;;;5031220;28;20312;-47
2022/12/03 09:15:47;;;;;;;39.83;21.60;;;6.00;45.50;;;;;;5031309;28;20969;-47
2022/12/03 09:18:13;;;;;;;34.50;19.37;;;6.00;45.60;;;;;;5031348;28;20404;-47
2022/12/03 09:20:39;;;;;;;36.72;20.73;;;6.00;46.20;;;;;;5031463;28;20405;-47
2022/12/03 09:23:05;;;;;;;37.20;21.48;;;6.00;45.50;;;;;;5030945;28;20268;-46
2022/12/03 09:25:31;;;;;;;33.67;20.60;;;6.10;45.70;;;;;;5032072;28;20178;-47
2022/12/03 09:27:57;;;;;;;34.30;20.57;;;6.10;45.60;;;;;;5035046;28;20170;-47
2022/12/03 09:30:22;;;;;;;36.73;21.77;;;6.10;45.60;;;;;;5034871;28;20405;-47
2022/12/03 09:32:48;;;;;;;37.63;18.67;;;6.20;45.60;;;;;;5034515;28;20244;-47
2022/12/03 09:35:14;;;;;;;34.00;19.23;;;6.20;45.40;;;;;;5034910;28;20190;-46
2022/12/03 09:37:40;;;;;;;42.95;21.50;;;6.20;45.40;;;;;;5034869;28;20197;-47
2022/12/03 09:40:07;;;;;;;36.60;21.10;;;6.20;45.40;;;;;;5034880;28;20181;-47
2022/12/03 09:42:33;;;;;;;36.00;19.25;;;6.20;45.50;;;;;;5034453;28;20690;-47
2022/12/03 09:44:59;;;;;;;36.00;18.77;;;6.30;45.50;;;;;;5034642;28;20594;-47
2022/12/03 09:47:25;;;;;;;38.13;21.13;;;6.30;45.50;;;;;;5034598;28;20201;-47
2022/12/03 09:49:51;;;;;;;36.93;22.00;;;6.30;45.40;;;;;;5034653;28;20409;-47
2022/12/03 09:52:26;;;;;;;38.42;21.30;;;6.20;44.80;;;;;;5034380;28;20424;-47
2022/12/03 09:54:52;;;;;;;34.50;20.42;;;6.20;45.10;;;;;;5034476;28;20173;-47
2022/12/03 09:57:18;;;;;;;36.90;20.70;;;6.20;45.10;;;;;;5034470;28;20532;-47
2022/12/03 09:59:45;;;;;;;35.53;19.58;;;6.20;45.30;;;;;;5034323;28;20412;-46
2022/12/03 10:02:21;;;;;;;38.45;21.15;;;6.10;45.40;;;;;;5034032;28;20197;-46
2022/12/03 10:04:47;;;;;;;39.65;19.65;;;6.20;45.30;;;;;;5034343;28;20165;-47
2022/12/03 10:07:13;;;;;;;32.47;20.65;;;6.20;45.40;;;;;;5034345;28;20182;-47
2022/12/03 10:09:39;;;;;;;35.78;20.50;;;6.10;45.40;;;;;;5034255;28;20162;-47
2022/12/03 10:12:08;;;;;;;37.03;19.40;;;6.20;45.40;;;;;;5033920;28;20555;-47
2022/12/03 10:14:34;;;;;;;34.42;19.50;;;6.20;45.60;;;;;;5034156;28;20473;-47
2022/12/03 10:16:59;;;;;;;40.63;21.27;;;6.20;45.60;;;;;;5034156;28;20261;-47
2022/12/03 10:19:28;;;;;;;35.97;21.67;;;6.20;45.40;;;;;;5034067;28;20259;-46
2022/12/03 10:21:54;;;;;;;37.13;20.27;;;6.30;45.50;;;;;;5033804;28;20544;-47
2022/12/03 10:24:27;;;;;;;42.80;22.70;;;6.30;45.60;;;;;;5033912;28;20209;-46
2022/12/03 10:26:58;;;;;;;36.92;20.55;;;6.30;45.60;;;;;;5033967;28;20249;-47
2022/12/03 10:29:28;;;;;;;34.80;20.45;;;6.40;45.70;;;;;;5033999;28;20173;-47
2022/12/03 10:32:14;;;;;;;36.17;19.40;;;6.40;45.60;;;;;;5033495;28;20204;-47
2022/12/03 10:34:41;;;;;;;34.63;18.63;;;6.40;45.50;;;;;;5033599;28;20208;-47
2022/12/03 10:37:21;;;;;;;32.30;20.02;;;6.40;45.40;;;;;;5033538;28;20185;-47
2022/12/03 10:40:01;;;;;;;44.72;24.65;;;6.50;45.40;;;;;;5033781;28;20224;-47
2022/12/03 10:42:35;;;;;;;38.70;20.95;;;6.40;45.40;;;;;;5033330;28;20276;-47
2022/12/03 10:45:21;;;;;;;37.05;20.58;;;6.40;45.20;;;;;;5033657;28;20674;-47
2022/12/03 10:48:26;;;;;;;43.83;23.63;;;6.40;45.20;;;;;;5033640;28;20194;-47
2022/12/03 10:50:55;;;;;;;37.90;20.00;;;6.40;45.40;;;;;;5011493;28;20298;-47
2022/12/03 10:53:25;;;;;;;42.67;22.48;;;6.40;45.60;;;;;;5011108;28;20199;-46
2022/12/03 10:55:57;;;;;;;38.28;21.33;;;6.40;45.60;;;;;;5011345;28;20291;-47
2022/12/03 10:58:33;;;;;;;36.50;20.67;;;6.40;45.60;;;;;;5011390;28;20176;-46
2022/12/03 11:01:02;;;;;;;64.43;36.35;;;6.40;45.50;;;;;;5011196;28;20182;-47
2022/12/03 11:03:32;;;;;;;42.22;24.80;;;6.40;45.50;;;;;;5010679;28;20202;-47
2022/12/03 11:05:59;;;;;;;41.50;25.63;;;6.50;45.60;;;;;;5011216;28;20202;-47
2022/12/03 11:08:29;;;;;;;36.38;23.05;;;6.50;45.50;;;;;;5010848;28;20317;-47
2022/12/03 11:11:05;;;;;;;38.10;22.85;;;6.50;45.60;;;;;;5011105;28;20705;-47
2022/12/03 11:13:33;;;;;;;47.90;29.80;;;6.50;45.50;;;;;;5010692;28;20600;-47
2022/12/03 11:16:01;;;;;;;37.90;21.83;;;6.50;45.60;;;;;;5010919;28;20207;-47
2022/12/03 11:18:35;;;;;;;35.55;21.35;;;6.50;46.30;;;;;;5011122;28;20563;-47
2022/12/03 11:21:13;;;;;;;39.40;22.20;;;6.50;45.40;;;;;;5016676;28;20694;-47
2022/12/03 11:23:44;;;;;;;37.30;21.55;;;6.50;45.20;;;;;;5032660;28;20209;-49
2022/12/03 11:26:37;;;;;;;39.80;21.75;;;6.40;45.20;;;;;;5032886;28;20186;-49
2022/12/03 11:29:04;;;;;;;40.30;22.90;;;6.40;45.40;;;;;;5032711;28;20173;-49
2022/12/03 11:31:40;;;;;;;35.50;20.50;;;6.40;45.40;;;;;;5032532;28;20190;-47
2022/12/03 11:34:18;;;;;;;43.88;24.85;;;6.40;45.60;;;;;;5032466;28;20328;-47
2022/12/03 11:37:09;;;;;;;44.60;22.92;;;6.40;45.60;;;;;;5032566;28;20173;-47
2022/12/03 11:39:49;;;;;;;41.25;22.30;;;6.50;45.70;;;;;;5032586;28;20177;-47
2022/12/03 11:42:24;;;;;;;42.15;25.60;;;6.50;45.40;;;;;;5032147;28;20528;-47
2022/12/03 11:45:04;;;;;;;40.42;23.55;;;6.50;45.70;;;;;;5032525;28;20193;-47
2022/12/03 11:47:42;;;;;;;38.80;20.48;;;6.50;45.90;;;;;;5032440;28;20180;-48
2022/12/03 11:50:26;;;;;;;41.13;23.77;;;6.50;45.50;;;;;;5032117;28;20166;-48
2022/12/03 11:52:57;;;;;;;48.13;23.27;;;6.60;45.60;;;;;;5032051;28;20595;-47
2022/12/03 11:55:30;;;;;;;40.05;22.50;;;6.60;45.80;;;;;;5032290;28;20174;-47
2022/12/03 11:58:13;;;;;;;45.20;21.42;;;6.60;45.60;;;;;;5032281;28;20517;-47
2022/12/03 12:00:47;;;;;;;45.65;22.55;;;6.70;45.80;;;;;;5032319;28;20174;-47
2022/12/03 12:03:22;;;;;;;38.95;22.35;;;6.70;45.80;;;;;;5031815;28;20256;-47
2022/12/03 12:06:05;;;;;;;43.78;21.42;;;6.80;45.80;;;;;;5032108;28;20169;-47
2022/12/03 12:08:33;;;;;;;43.08;23.02;;;6.80;45.80;;;;;;5032093;28;20253;-47
2022/12/03 12:10:59;;;;;;;36.28;21.95;;;6.80;45.80;;;;;;5031986;28;20170;-48
2022/12/03 12:13:25;;;;;;;47.50;21.88;;;6.80;45.70;;;;;;5031648;28;20194;-47
2022/12/03 12:15:51;;;;;;;37.00;22.05;;;6.90;45.90;;;;;;5031942;28;20177;-47
2022/12/03 12:18:38;;;;;;;38.93;21.90;;;6.90;45.90;;;;;;5031994;28;20185;-47
2022/12/03 12:21:42;;;;;;;47.17;23.88;;;7.00;45.80;;;;;;5032151;28;20922;-47
2022/12/03 12:24:39;;;;;;;37.30;21.50;;;7.00;45.80;;;;;;5031672;28;20210;-47
2022/12/03 12:27:28;;;;;;;41.30;21.83;;;7.00;45.80;;;;;;5031882;28;20273;-47
2022/12/03 12:29:56;;;;;;;38.03;23.02;;;7.00;45.90;;;;;;5028793;28;20260;-48
2022/12/03 12:32:26;;;;;;;50.35;22.30;;;7.00;45.90;;;;;;5031438;28;20295;-48
2022/12/03 12:34:59;;;;;;;41.40;22.08;;;7.00;45.90;;;;;;5031867;28;20194;-48
2022/12/03 12:37:35;;;;;;;39.13;21.58;;;7.00;45.90;;;;;;5031813;28;20176;-47
2022/12/03 12:40:10;;;;;;;40.15;22.27;;;7.00;45.90;;;;;;5031713;28;20228;-47
2022/12/03 12:42:41;;;;;;;35.47;20.58;;;7.00;45.80;;;;;;5031437;28;20679;-48
2022/12/03 12:45:07;;;;;;;43.33;21.80;;;7.00;45.90;;;;;;5031792;28;20154;-47
2022/12/03 12:47:34;;;;;;;39.60;20.93;;;7.00;45.90;;;;;;5031772;28;20228;-48
2022/12/03 12:50:01;;;;;;;36.92;22.92;;;7.00;46.00;;;;;;5031751;28;20162;-48
2022/12/03 12:52:27;;;;;;;38.83;21.50;;;7.00;45.80;;;;;;5031188;28;20625;-48
2022/12/03 12:54:53;;;;;;;38.08;22.58;;;7.00;45.90;;;;;;5031662;28;20177;-48
2022/12/03 12:57:22;;;;;;;40.93;23.40;;;7.00;46.00;;;;;;5031619;28;20261;-47
2022/12/03 12:59:48;;;;;;;44.78;20.90;;;7.00;46.10;;;;;;5032827;28;20166;-48
2022/12/03 13:02:36;;;;;;;39.88;22.08;;;5.60;45.50;;;;;;5035159;28;20216;-47
2022/12/03 13:05:03;;;;;;;38.05;21.10;;;7.00;46.10;;;;;;5035483;28;20168;-48
2022/12/03 13:07:30;;;;;;;44.33;23.00;;;7.00;46.20;;;;;;5035375;28;20170;-47
2022/12/03 13:09:57;;;;;;;41.10;21.48;;;7.00;46.10;;;;;;5035395;28;20170;-48
2022/12/03 13:12:23;;;;;;;37.33;19.65;;;7.00;46.20;;;;;;5035121;28;20198;-48